sensor_id;sensor_type;location;lat;lon;timestamp;P1;durP1;ratioP1;P2;durP2;ratioP2
65996;SDS011;52765;52.258;21.052;2023-05-20T00:00:27;13.15;;;7.07;;
65996;SDS011;52765;52.258;21.052;2023-05-20T00:02:55;13.13;;;6.90;;
65996;SDS011;52765;52.258;21.052;2023-05-20T00:05:21;9.82;;;6.05;;
65996;SDS011;52765;52.258;21.052;2023-05-20T00:07:47;13.30;;;6.75;;
65996;SDS011;52765;52.258;21.052;2023-05-20T00:10:13;8.38;;;5.47;;
65996;SDS011;52765;52.258;21.052;2023-05-20T00:12:38;12.60;;;6.03;;
65996;SDS011;52765;52.258;21.052;2023-05-20T00:15:04;12.40;;;5.95;;
65996;SDS011;52765;52.258;21.052;2023-05-20T00:17:30;10.10;;;5.75;;
65996;SDS011;52765;52.258;21.052;2023-05-20T00:19:56;11.18;;;6.05;;
65996;SDS011;52765;52.258;21.052;2023-05-20T00:22:21;13.55;;;5.90;;
65996;SDS011;52765;52.258;21.052;2023-05-20T00:24:49;9.57;;;5.63;;
65996;SDS011;52765;52.258;21.052;2023-05-20T00:27:15;9.82;;;5.38;;
65996;SDS011;52765;52.258;21.052;2023-05-20T00:29:40;10.35;;;5.38;;
65996;SDS011;52765;52.258;21.052;2023-05-20T00:32:06;8.77;;;5.20;;
65996;SDS011;52765;52.258;21.052;2023-05-20T00:34:32;9.05;;;5.82;;
65996;SDS011;52765;52.258;21.052;2023-05-20T00:36:57;8.57;;;5.25;;
65996;SDS011;52765;52.258;21.052;2023-05-20T00:39:23;10.50;;;5.10;;
65996;SDS011;52765;52.258;21.052;2023-05-20T00:41:48;8.15;;;5.20;;
65996;SDS011;52765;52.258;21.052;2023-05-20T00:44:13;8.70;;;5.78;;
65996;SDS011;52765;52.258;21.052;2023-05-20T00:46:39;10.25;;;5.40;;
65996;SDS011;52765;52.258;21.052;2023-05-20T00:49:04;9.93;;;5.63;;
65996;SDS011;52765;52.258;21.052;2023-05-20T00:51:30;9.10;;;5.25;;
65996;SDS011;52765;52.258;21.052;2023-05-20T00:53:56;9.20;;;5.28;;
65996;SDS011;52765;52.258;21.052;2023-05-20T00:56:24;14.52;;;6.13;;
65996;SDS011;52765;52.258;21.052;2023-05-20T00:58:50;11.85;;;5.10;;
65996;SDS011;52765;52.258;21.052;2023-05-20T01:01:15;14.00;;;6.40;;
65996;SDS011;52765;52.258;21.052;2023-05-20T01:03:41;8.23;;;5.32;;
65996;SDS011;52765;52.258;21.052;2023-05-20T01:06:06;10.75;;;5.78;;
65996;SDS011;52765;52.258;21.052;2023-05-20T01:08:32;8.63;;;5.20;;
65996;SDS011;52765;52.258;21.052;2023-05-20T01:11:07;11.13;;;5.03;;
65996;SDS011;52765;52.258;21.052;2023-05-20T01:13:49;7.90;;;5.28;;
65996;SDS011;52765;52.258;21.052;2023-05-20T01:16:18;9.13;;;4.72;;
65996;SDS011;52765;52.258;21.052;2023-05-20T01:18:48;11.00;;;5.15;;
65996;SDS011;52765;52.258;21.052;2023-05-20T01:21:19;9.18;;;4.93;;
65996;SDS011;52765;52.258;21.052;2023-05-20T01:23:46;8.65;;;4.57;;
65996;SDS011;52765;52.258;21.052;2023-05-20T01:26:12;17.48;;;5.43;;
65996;SDS011;52765;52.258;21.052;2023-05-20T01:28:38;7.78;;;4.50;;
65996;SDS011;52765;52.258;21.052;2023-05-20T01:31:04;11.38;;;5.38;;
65996;SDS011;52765;52.258;21.052;2023-05-20T01:33:35;8.75;;;4.78;;
65996;SDS011;52765;52.258;21.052;2023-05-20T01:36:01;8.20;;;4.78;;
65996;SDS011;52765;52.258;21.052;2023-05-20T01:38:27;8.55;;;5.00;;
65996;SDS011;52765;52.258;21.052;2023-05-20T01:40:53;7.18;;;4.55;;
65996;SDS011;52765;52.258;21.052;2023-05-20T01:43:21;7.43;;;4.60;;
65996;SDS011;52765;52.258;21.052;2023-05-20T01:45:47;7.18;;;4.20;;
65996;SDS011;52765;52.258;21.052;2023-05-20T01:48:12;7.53;;;4.72;;
65996;SDS011;52765;52.258;21.052;2023-05-20T01:50:38;9.23;;;4.65;;
65996;SDS011;52765;52.258;21.052;2023-05-20T01:53:04;11.50;;;5.15;;
65996;SDS011;52765;52.258;21.052;2023-05-20T01:55:32;7.43;;;4.47;;
65996;SDS011;52765;52.258;21.052;2023-05-20T01:57:58;9.93;;;4.50;;
65996;SDS011;52765;52.258;21.052;2023-05-20T02:00:23;7.28;;;4.38;;
65996;SDS011;52765;52.258;21.052;2023-05-20T02:02:48;6.30;;;3.90;;
65996;SDS011;52765;52.258;21.052;2023-05-20T02:05:14;6.47;;;3.92;;
65996;SDS011;52765;52.258;21.052;2023-05-20T02:07:40;11.25;;;3.88;;
65996;SDS011;52765;52.258;21.052;2023-05-20T02:10:06;10.68;;;4.53;;
65996;SDS011;52765;52.258;21.052;2023-05-20T02:12:31;7.78;;;4.38;;
65996;SDS011;52765;52.258;21.052;2023-05-20T02:14:57;8.00;;;4.22;;
65996;SDS011;52765;52.258;21.052;2023-05-20T02:17:22;11.10;;;4.68;;
65996;SDS011;52765;52.258;21.052;2023-05-20T02:19:48;10.20;;;4.03;;
65996;SDS011;52765;52.258;21.052;2023-05-20T02:22:13;6.25;;;4.30;;
65996;SDS011;52765;52.258;21.052;2023-05-20T02:24:39;10.27;;;3.83;;
65996;SDS011;52765;52.258;21.052;2023-05-20T02:27:05;8.70;;;4.47;;
65996;SDS011;52765;52.258;21.052;2023-05-20T02:29:31;7.55;;;4.53;;
65996;SDS011;52765;52.258;21.052;2023-05-20T02:31:56;7.53;;;3.83;;
65996;SDS011;52765;52.258;21.052;2023-05-20T02:34:22;7.90;;;4.40;;
65996;SDS011;52765;52.258;21.052;2023-05-20T02:36:49;7.57;;;4.03;;
65996;SDS011;52765;52.258;21.052;2023-05-20T02:39:15;7.03;;;4.47;;
65996;SDS011;52765;52.258;21.052;2023-05-20T02:41:41;11.13;;;4.70;;
65996;SDS011;52765;52.258;21.052;2023-05-20T02:44:06;10.77;;;4.40;;
65996;SDS011;52765;52.258;21.052;2023-05-20T02:46:32;10.05;;;4.57;;
65996;SDS011;52765;52.258;21.052;2023-05-20T02:49:00;9.75;;;4.10;;
65996;SDS011;52765;52.258;21.052;2023-05-20T02:51:26;7.53;;;4.30;;
65996;SDS011;52765;52.258;21.052;2023-05-20T02:53:51;11.80;;;5.03;;
65996;SDS011;52765;52.258;21.052;2023-05-20T02:56:17;8.05;;;4.15;;
65996;SDS011;52765;52.258;21.052;2023-05-20T02:58:45;8.05;;;4.22;;
65996;SDS011;52765;52.258;21.052;2023-05-20T03:01:13;7.30;;;4.35;;
65996;SDS011;52765;52.258;21.052;2023-05-20T03:06:23;11.38;;;4.93;;
65996;SDS011;52765;52.258;21.052;2023-05-20T03:08:51;8.90;;;4.50;;
65996;SDS011;52765;52.258;21.052;2023-05-20T03:11:23;14.23;;;5.07;;
65996;SDS011;52765;52.258;21.052;2023-05-20T03:13:48;7.22;;;4.25;;
65996;SDS011;52765;52.258;21.052;2023-05-20T03:16:13;9.10;;;4.55;;
65996;SDS011;52765;52.258;21.052;2023-05-20T03:18:40;9.20;;;4.25;;
65996;SDS011;52765;52.258;21.052;2023-05-20T03:21:08;7.82;;;4.55;;
65996;SDS011;52765;52.258;21.052;2023-05-20T03:23:39;10.50;;;4.60;;
65996;SDS011;52765;52.258;21.052;2023-05-20T03:26:08;7.70;;;4.15;;
65996;SDS011;52765;52.258;21.052;2023-05-20T03:28:33;8.95;;;4.95;;
65996;SDS011;52765;52.258;21.052;2023-05-20T03:31:00;8.85;;;4.35;;
65996;SDS011;52765;52.258;21.052;2023-05-20T03:33:26;10.45;;;4.65;;
65996;SDS011;52765;52.258;21.052;2023-05-20T03:35:51;7.50;;;4.57;;
65996;SDS011;52765;52.258;21.052;2023-05-20T03:38:20;10.85;;;5.10;;
65996;SDS011;52765;52.258;21.052;2023-05-20T03:40:47;7.00;;;3.83;;
65996;SDS011;52765;52.258;21.052;2023-05-20T03:43:12;9.88;;;4.18;;
65996;SDS011;52765;52.258;21.052;2023-05-20T03:45:37;7.97;;;4.60;;
65996;SDS011;52765;52.258;21.052;2023-05-20T03:48:03;9.95;;;4.65;;
65996;SDS011;52765;52.258;21.052;2023-05-20T03:50:28;10.10;;;5.03;;
65996;SDS011;52765;52.258;21.052;2023-05-20T03:52:59;5.75;;;4.05;;
65996;SDS011;52765;52.258;21.052;2023-05-20T03:55:25;8.25;;;4.68;;
65996;SDS011;52765;52.258;21.052;2023-05-20T03:57:54;9.13;;;4.20;;
65996;SDS011;52765;52.258;21.052;2023-05-20T04:00:20;10.77;;;4.13;;
65996;SDS011;52765;52.258;21.052;2023-05-20T04:02:50;9.95;;;4.35;;
65996;SDS011;52765;52.258;21.052;2023-05-20T04:05:19;5.97;;;3.60;;
65996;SDS011;52765;52.258;21.052;2023-05-20T04:07:44;9.43;;;4.72;;
65996;SDS011;52765;52.258;21.052;2023-05-20T04:10:10;8.27;;;4.30;;
65996;SDS011;52765;52.258;21.052;2023-05-20T04:12:44;6.32;;;4.05;;
65996;SDS011;52765;52.258;21.052;2023-05-20T04:15:11;10.13;;;4.57;;
65996;SDS011;52765;52.258;21.052;2023-05-20T04:17:36;7.88;;;4.13;;
65996;SDS011;52765;52.258;21.052;2023-05-20T04:20:07;7.00;;;4.15;;
65996;SDS011;52765;52.258;21.052;2023-05-20T04:22:35;9.82;;;4.75;;
65996;SDS011;52765;52.258;21.052;2023-05-20T04:25:09;6.65;;;3.92;;
65996;SDS011;52765;52.258;21.052;2023-05-20T04:27:35;6.43;;;4.15;;
65996;SDS011;52765;52.258;21.052;2023-05-20T04:30:04;12.20;;;6.03;;
65996;SDS011;52765;52.258;21.052;2023-05-20T04:32:31;15.73;;;9.18;;
65996;SDS011;52765;52.258;21.052;2023-05-20T04:35:05;14.50;;;7.95;;
65996;SDS011;52765;52.258;21.052;2023-05-20T04:37:43;10.05;;;5.78;;
65996;SDS011;52765;52.258;21.052;2023-05-20T04:40:17;9.63;;;5.53;;
65996;SDS011;52765;52.258;21.052;2023-05-20T04:42:43;11.55;;;5.47;;
65996;SDS011;52765;52.258;21.052;2023-05-20T04:45:08;10.27;;;4.85;;
65996;SDS011;52765;52.258;21.052;2023-05-20T04:47:34;10.45;;;4.75;;
65996;SDS011;52765;52.258;21.052;2023-05-20T04:50:04;7.75;;;4.70;;
65996;SDS011;52765;52.258;21.052;2023-05-20T04:52:39;11.65;;;4.00;;
65996;SDS011;52765;52.258;21.052;2023-05-20T04:55:08;7.75;;;4.00;;
65996;SDS011;52765;52.258;21.052;2023-05-20T04:57:34;5.05;;;3.65;;
65996;SDS011;52765;52.258;21.052;2023-05-20T05:00:05;10.05;;;4.70;;
65996;SDS011;52765;52.258;21.052;2023-05-20T05:02:34;9.77;;;4.00;;
65996;SDS011;52765;52.258;21.052;2023-05-20T05:04:59;7.65;;;4.15;;
65996;SDS011;52765;52.258;21.052;2023-05-20T05:07:25;4.63;;;3.00;;
65996;SDS011;52765;52.258;21.052;2023-05-20T05:09:50;7.15;;;4.13;;
65996;SDS011;52765;52.258;21.052;2023-05-20T05:12:19;4.82;;;3.17;;
65996;SDS011;52765;52.258;21.052;2023-05-20T05:14:47;9.40;;;3.65;;
65996;SDS011;52765;52.258;21.052;2023-05-20T05:17:12;5.40;;;3.20;;
65996;SDS011;52765;52.258;21.052;2023-05-20T05:19:38;5.20;;;3.60;;
65996;SDS011;52765;52.258;21.052;2023-05-20T05:22:06;5.70;;;3.35;;
65996;SDS011;52765;52.258;21.052;2023-05-20T05:24:31;4.82;;;3.08;;
65996;SDS011;52765;52.258;21.052;2023-05-20T05:27:05;7.00;;;3.42;;
65996;SDS011;52765;52.258;21.052;2023-05-20T05:29:30;6.53;;;3.08;;
65996;SDS011;52765;52.258;21.052;2023-05-20T05:31:56;7.05;;;3.55;;
65996;SDS011;52765;52.258;21.052;2023-05-20T05:34:21;8.48;;;4.00;;
65996;SDS011;52765;52.258;21.052;2023-05-20T05:36:47;6.45;;;3.03;;
65996;SDS011;52765;52.258;21.052;2023-05-20T05:39:15;10.73;;;3.53;;
65996;SDS011;52765;52.258;21.052;2023-05-20T05:41:45;6.38;;;2.70;;
65996;SDS011;52765;52.258;21.052;2023-05-20T05:44:11;8.57;;;3.35;;
65996;SDS011;52765;52.258;21.052;2023-05-20T05:46:36;5.82;;;3.67;;
65996;SDS011;52765;52.258;21.052;2023-05-20T05:49:02;8.85;;;3.13;;
65996;SDS011;52765;52.258;21.052;2023-05-20T05:51:27;7.03;;;2.83;;
65996;SDS011;52765;52.258;21.052;2023-05-20T05:53:53;6.57;;;3.15;;
65996;SDS011;52765;52.258;21.052;2023-05-20T05:56:18;5.15;;;3.15;;
65996;SDS011;52765;52.258;21.052;2023-05-20T05:58:45;7.50;;;3.22;;
65996;SDS011;52765;52.258;21.052;2023-05-20T06:01:12;6.85;;;3.10;;
65996;SDS011;52765;52.258;21.052;2023-05-20T06:03:37;4.40;;;3.08;;
65996;SDS011;52765;52.258;21.052;2023-05-20T06:06:03;10.50;;;2.88;;
65996;SDS011;52765;52.258;21.052;2023-05-20T06:08:28;6.63;;;3.20;;
65996;SDS011;52765;52.258;21.052;2023-05-20T06:10:54;6.43;;;3.35;;
65996;SDS011;52765;52.258;21.052;2023-05-20T06:13:20;5.95;;;3.28;;
65996;SDS011;52765;52.258;21.052;2023-05-20T06:15:47;4.63;;;2.83;;
65996;SDS011;52765;52.258;21.052;2023-05-20T06:18:13;5.25;;;3.10;;
65996;SDS011;52765;52.258;21.052;2023-05-20T06:20:39;8.05;;;3.33;;
65996;SDS011;52765;52.258;21.052;2023-05-20T06:23:05;5.47;;;3.08;;
65996;SDS011;52765;52.258;21.052;2023-05-20T06:25:30;3.20;;;2.88;;
65996;SDS011;52765;52.258;21.052;2023-05-20T06:27:56;5.68;;;3.10;;
65996;SDS011;52765;52.258;21.052;2023-05-20T06:30:21;7.82;;;3.22;;
65996;SDS011;52765;52.258;21.052;2023-05-20T06:32:46;5.57;;;2.85;;
65996;SDS011;52765;52.258;21.052;2023-05-20T06:35:12;6.18;;;3.17;;
65996;SDS011;52765;52.258;21.052;2023-05-20T06:37:37;5.00;;;3.00;;
65996;SDS011;52765;52.258;21.052;2023-05-20T06:40:03;4.13;;;3.17;;
65996;SDS011;52765;52.258;21.052;2023-05-20T06:42:29;7.68;;;2.90;;
65996;SDS011;52765;52.258;21.052;2023-05-20T06:44:54;5.60;;;2.95;;
65996;SDS011;52765;52.258;21.052;2023-05-20T06:47:20;6.13;;;3.08;;
65996;SDS011;52765;52.258;21.052;2023-05-20T06:49:45;5.15;;;2.80;;
65996;SDS011;52765;52.258;21.052;2023-05-20T06:52:11;7.45;;;3.35;;
65996;SDS011;52765;52.258;21.052;2023-05-20T06:54:37;10.13;;;3.17;;
65996;SDS011;52765;52.258;21.052;2023-05-20T06:57:08;6.75;;;3.25;;
65996;SDS011;52765;52.258;21.052;2023-05-20T06:59:34;7.43;;;3.33;;
65996;SDS011;52765;52.258;21.052;2023-05-20T07:02:03;8.32;;;3.53;;
65996;SDS011;52765;52.258;21.052;2023-05-20T07:04:29;5.93;;;2.72;;
65996;SDS011;52765;52.258;21.052;2023-05-20T07:06:54;4.78;;;2.97;;
65996;SDS011;52765;52.258;21.052;2023-05-20T07:09:20;6.95;;;4.22;;
65996;SDS011;52765;52.258;21.052;2023-05-20T07:11:45;7.97;;;4.03;;
65996;SDS011;52765;52.258;21.052;2023-05-20T07:14:11;3.65;;;3.05;;
65996;SDS011;52765;52.258;21.052;2023-05-20T07:16:36;5.68;;;3.13;;
65996;SDS011;52765;52.258;21.052;2023-05-20T07:19:02;7.05;;;3.40;;
65996;SDS011;52765;52.258;21.052;2023-05-20T07:21:28;5.15;;;2.72;;
65996;SDS011;52765;52.258;21.052;2023-05-20T07:23:53;4.60;;;2.60;;
65996;SDS011;52765;52.258;21.052;2023-05-20T07:26:19;3.78;;;2.58;;
65996;SDS011;52765;52.258;21.052;2023-05-20T07:28:45;3.08;;;2.67;;
65996;SDS011;52765;52.258;21.052;2023-05-20T07:31:11;6.40;;;2.95;;
65996;SDS011;52765;52.258;21.052;2023-05-20T07:33:36;4.93;;;3.03;;
65996;SDS011;52765;52.258;21.052;2023-05-20T07:36:02;2.90;;;2.60;;
65996;SDS011;52765;52.258;21.052;2023-05-20T07:38:28;3.72;;;2.65;;
65996;SDS011;52765;52.258;21.052;2023-05-20T07:40:53;5.03;;;2.83;;
65996;SDS011;52765;52.258;21.052;2023-05-20T07:43:18;7.95;;;3.10;;
65996;SDS011;52765;52.258;21.052;2023-05-20T07:45:44;4.85;;;2.90;;
65996;SDS011;52765;52.258;21.052;2023-05-20T07:48:09;4.22;;;2.80;;
65996;SDS011;52765;52.258;21.052;2023-05-20T07:50:36;7.00;;;3.40;;
65996;SDS011;52765;52.258;21.052;2023-05-20T07:53:03;4.15;;;3.00;;
65996;SDS011;52765;52.258;21.052;2023-05-20T07:55:29;4.45;;;2.60;;
65996;SDS011;52765;52.258;21.052;2023-05-20T07:57:58;4.15;;;2.60;;
65996;SDS011;52765;52.258;21.052;2023-05-20T08:00:23;6.07;;;2.80;;
65996;SDS011;52765;52.258;21.052;2023-05-20T08:02:48;3.10;;;2.72;;
65996;SDS011;52765;52.258;21.052;2023-05-20T08:05:14;9.23;;;5.88;;
65996;SDS011;52765;52.258;21.052;2023-05-20T08:07:39;5.50;;;3.78;;
65996;SDS011;52765;52.258;21.052;2023-05-20T08:10:05;5.68;;;3.17;;
65996;SDS011;52765;52.258;21.052;2023-05-20T08:12:31;5.72;;;3.42;;
65996;SDS011;52765;52.258;21.052;2023-05-20T08:14:56;4.70;;;3.03;;
65996;SDS011;52765;52.258;21.052;2023-05-20T08:17:22;8.20;;;3.92;;
65996;SDS011;52765;52.258;21.052;2023-05-20T08:19:47;3.92;;;3.38;;
65996;SDS011;52765;52.258;21.052;2023-05-20T08:22:13;10.38;;;3.47;;
65996;SDS011;52765;52.258;21.052;2023-05-20T08:24:38;8.18;;;5.40;;
65996;SDS011;52765;52.258;21.052;2023-05-20T08:27:04;8.15;;;4.25;;
65996;SDS011;52765;52.258;21.052;2023-05-20T08:29:29;7.75;;;4.18;;
65996;SDS011;52765;52.258;21.052;2023-05-20T08:31:55;5.90;;;4.20;;
65996;SDS011;52765;52.258;21.052;2023-05-20T08:34:20;6.03;;;3.33;;
65996;SDS011;52765;52.258;21.052;2023-05-20T08:36:46;6.18;;;3.60;;
65996;SDS011;52765;52.258;21.052;2023-05-20T08:39:11;6.47;;;3.38;;
65996;SDS011;52765;52.258;21.052;2023-05-20T08:41:37;8.98;;;4.55;;
65996;SDS011;52765;52.258;21.052;2023-05-20T08:44:03;14.05;;;4.60;;
65996;SDS011;52765;52.258;21.052;2023-05-20T08:46:31;9.32;;;4.15;;
65996;SDS011;52765;52.258;21.052;2023-05-20T08:48:58;7.90;;;4.07;;
65996;SDS011;52765;52.258;21.052;2023-05-20T08:51:24;8.32;;;3.97;;
65996;SDS011;52765;52.258;21.052;2023-05-20T08:53:51;10.32;;;5.22;;
65996;SDS011;52765;52.258;21.052;2023-05-20T08:56:18;6.68;;;4.18;;
65996;SDS011;52765;52.258;21.052;2023-05-20T08:58:46;8.07;;;4.10;;
65996;SDS011;52765;52.258;21.052;2023-05-20T09:01:11;10.23;;;3.67;;
65996;SDS011;52765;52.258;21.052;2023-05-20T09:03:37;6.55;;;4.07;;
65996;SDS011;52765;52.258;21.052;2023-05-20T09:06:03;6.07;;;3.80;;
65996;SDS011;52765;52.258;21.052;2023-05-20T09:08:32;6.50;;;4.47;;
65996;SDS011;52765;52.258;21.052;2023-05-20T09:10:58;7.43;;;4.13;;
65996;SDS011;52765;52.258;21.052;2023-05-20T09:13:24;10.48;;;4.70;;
65996;SDS011;52765;52.258;21.052;2023-05-20T09:15:50;9.02;;;4.68;;
65996;SDS011;52765;52.258;21.052;2023-05-20T09:18:16;5.75;;;4.20;;
65996;SDS011;52765;52.258;21.052;2023-05-20T09:20:41;10.85;;;4.22;;
65996;SDS011;52765;52.258;21.052;2023-05-20T09:23:08;6.38;;;4.28;;
65996;SDS011;52765;52.258;21.052;2023-05-20T09:25:35;7.75;;;4.97;;
65996;SDS011;52765;52.258;21.052;2023-05-20T09:28:01;9.02;;;6.13;;
65996;SDS011;52765;52.258;21.052;2023-05-20T09:30:31;12.52;;;7.82;;
65996;SDS011;52765;52.258;21.052;2023-05-20T09:32:58;9.25;;;6.25;;
65996;SDS011;52765;52.258;21.052;2023-05-20T09:35:25;8.10;;;5.55;;
65996;SDS011;52765;52.258;21.052;2023-05-20T09:37:52;7.43;;;3.97;;
65996;SDS011;52765;52.258;21.052;2023-05-20T09:40:20;9.93;;;4.65;;
65996;SDS011;52765;52.258;21.052;2023-05-20T09:45:22;8.50;;;4.60;;
65996;SDS011;52765;52.258;21.052;2023-05-20T09:47:52;8.77;;;4.63;;
65996;SDS011;52765;52.258;21.052;2023-05-20T09:50:22;11.97;;;4.33;;
65996;SDS011;52765;52.258;21.052;2023-05-20T09:52:49;6.97;;;4.63;;
65996;SDS011;52765;52.258;21.052;2023-05-20T09:55:16;9.05;;;4.50;;
65996;SDS011;52765;52.258;21.052;2023-05-20T09:57:43;9.88;;;4.80;;
65996;SDS011;52765;52.258;21.052;2023-05-20T10:00:09;5.70;;;4.10;;
65996;SDS011;52765;52.258;21.052;2023-05-20T10:02:39;11.07;;;4.63;;
65996;SDS011;52765;52.258;21.052;2023-05-20T10:05:10;7.13;;;4.78;;
65996;SDS011;52765;52.258;21.052;2023-05-20T10:13:31;7.22;;;4.93;;
65996;SDS011;52765;52.258;21.052;2023-05-20T10:16:01;10.02;;;5.07;;
65996;SDS011;52765;52.258;21.052;2023-05-20T10:18:37;11.23;;;4.57;;
65996;SDS011;52765;52.258;21.052;2023-05-20T10:21:32;5.47;;;4.20;;
65996;SDS011;52765;52.258;21.052;2023-05-20T10:24:04;6.57;;;4.15;;
65996;SDS011;52765;52.258;21.052;2023-05-20T10:26:38;7.47;;;5.05;;
65996;SDS011;52765;52.258;21.052;2023-05-20T10:29:15;7.82;;;5.55;;
65996;SDS011;52765;52.258;21.052;2023-05-20T10:31:47;10.95;;;5.55;;
65996;SDS011;52765;52.258;21.052;2023-05-20T10:34:17;7.45;;;4.55;;
65996;SDS011;52765;52.258;21.052;2023-05-20T10:39:30;7.22;;;4.28;;
65996;SDS011;52765;52.258;21.052;2023-05-20T10:42:06;8.18;;;4.88;;
65996;SDS011;52765;52.258;21.052;2023-05-20T10:44:45;9.32;;;4.72;;
65996;SDS011;52765;52.258;21.052;2023-05-20T10:47:11;7.95;;;4.88;;
65996;SDS011;52765;52.258;21.052;2023-05-20T10:49:43;9.13;;;4.75;;
65996;SDS011;52765;52.258;21.052;2023-05-20T10:52:10;7.47;;;4.40;;
65996;SDS011;52765;52.258;21.052;2023-05-20T10:54:36;10.77;;;4.47;;
65996;SDS011;52765;52.258;21.052;2023-05-20T10:57:33;11.48;;;5.15;;
65996;SDS011;52765;52.258;21.052;2023-05-20T10:59:58;6.97;;;4.75;;
65996;SDS011;52765;52.258;21.052;2023-05-20T11:02:25;9.15;;;5.00;;
65996;SDS011;52765;52.258;21.052;2023-05-20T11:04:52;6.38;;;4.45;;
65996;SDS011;52765;52.258;21.052;2023-05-20T11:07:23;9.60;;;5.18;;
65996;SDS011;52765;52.258;21.052;2023-05-20T11:09:50;8.77;;;4.82;;
65996;SDS011;52765;52.258;21.052;2023-05-20T11:12:15;4.95;;;4.00;;
65996;SDS011;52765;52.258;21.052;2023-05-20T11:14:41;6.35;;;4.45;;
65996;SDS011;52765;52.258;21.052;2023-05-20T11:17:06;7.45;;;4.47;;
65996;SDS011;52765;52.258;21.052;2023-05-20T11:19:32;6.72;;;4.93;;
65996;SDS011;52765;52.258;21.052;2023-05-20T11:21:57;7.07;;;4.20;;
65996;SDS011;52765;52.258;21.052;2023-05-20T11:24:26;8.82;;;5.65;;
65996;SDS011;52765;52.258;21.052;2023-05-20T11:26:55;9.95;;;5.38;;
65996;SDS011;52765;52.258;21.052;2023-05-20T11:29:22;7.45;;;4.80;;
65996;SDS011;52765;52.258;21.052;2023-05-20T11:31:48;7.40;;;4.63;;
65996;SDS011;52765;52.258;21.052;2023-05-20T11:34:15;9.25;;;4.72;;
65996;SDS011;52765;52.258;21.052;2023-05-20T11:36:41;8.40;;;4.38;;
65996;SDS011;52765;52.258;21.052;2023-05-20T11:39:08;9.57;;;5.10;;
65996;SDS011;52765;52.258;21.052;2023-05-20T11:41:35;5.82;;;4.63;;
65996;SDS011;52765;52.258;21.052;2023-05-20T11:44:00;9.43;;;4.40;;
65996;SDS011;52765;52.258;21.052;2023-05-20T11:46:26;10.00;;;4.97;;
65996;SDS011;52765;52.258;21.052;2023-05-20T11:48:53;11.25;;;4.88;;
65996;SDS011;52765;52.258;21.052;2023-05-20T11:51:32;7.82;;;4.53;;
65996;SDS011;52765;52.258;21.052;2023-05-20T11:54:01;8.32;;;4.93;;
65996;SDS011;52765;52.258;21.052;2023-05-20T11:56:28;6.03;;;4.70;;
65996;SDS011;52765;52.258;21.052;2023-05-20T11:58:59;10.02;;;5.38;;
65996;SDS011;52765;52.258;21.052;2023-05-20T12:01:25;7.05;;;4.88;;
65996;SDS011;52765;52.258;21.052;2023-05-20T12:03:54;6.78;;;4.75;;
65996;SDS011;52765;52.258;21.052;2023-05-20T12:06:19;6.32;;;4.43;;
65996;SDS011;52765;52.258;21.052;2023-05-20T12:08:45;8.23;;;4.90;;
65996;SDS011;52765;52.258;21.052;2023-05-20T12:11:11;10.10;;;5.50;;
65996;SDS011;52765;52.258;21.052;2023-05-20T12:13:37;7.32;;;4.53;;
65996;SDS011;52765;52.258;21.052;2023-05-20T12:16:02;9.40;;;4.88;;
65996;SDS011;52765;52.258;21.052;2023-05-20T12:18:31;6.15;;;4.68;;
65996;SDS011;52765;52.258;21.052;2023-05-20T12:21:00;5.80;;;4.47;;
65996;SDS011;52765;52.258;21.052;2023-05-20T12:23:26;7.15;;;5.50;;
65996;SDS011;52765;52.258;21.052;2023-05-20T12:25:53;7.90;;;4.95;;
65996;SDS011;52765;52.258;21.052;2023-05-20T12:28:18;7.30;;;4.35;;
65996;SDS011;52765;52.258;21.052;2023-05-20T12:30:44;6.35;;;4.60;;
65996;SDS011;52765;52.258;21.052;2023-05-20T12:33:09;5.55;;;4.60;;
65996;SDS011;52765;52.258;21.052;2023-05-20T12:35:38;6.07;;;4.70;;
65996;SDS011;52765;52.258;21.052;2023-05-20T12:38:04;9.45;;;4.75;;
65996;SDS011;52765;52.258;21.052;2023-05-20T12:40:32;6.25;;;4.22;;
65996;SDS011;52765;52.258;21.052;2023-05-20T12:42:59;8.73;;;4.53;;
65996;SDS011;52765;52.258;21.052;2023-05-20T12:45:25;6.45;;;4.32;;
65996;SDS011;52765;52.258;21.052;2023-05-20T12:47:57;5.07;;;4.40;;
65996;SDS011;52765;52.258;21.052;2023-05-20T12:50:23;11.38;;;4.45;;
65996;SDS011;52765;52.258;21.052;2023-05-20T12:52:49;8.50;;;4.90;;
65996;SDS011;52765;52.258;21.052;2023-05-20T12:55:15;12.02;;;4.97;;
65996;SDS011;52765;52.258;21.052;2023-05-20T12:57:49;8.10;;;4.95;;
65996;SDS011;52765;52.258;21.052;2023-05-20T13:00:15;5.95;;;4.40;;
65996;SDS011;52765;52.258;21.052;2023-05-20T13:02:42;6.65;;;4.20;;
65996;SDS011;52765;52.258;21.052;2023-05-20T13:05:08;10.25;;;5.10;;
65996;SDS011;52765;52.258;21.052;2023-05-20T13:07:34;10.07;;;5.10;;
65996;SDS011;52765;52.258;21.052;2023-05-20T13:10:00;6.15;;;4.22;;
65996;SDS011;52765;52.258;21.052;2023-05-20T13:12:25;8.73;;;4.70;;
65996;SDS011;52765;52.258;21.052;2023-05-20T13:14:51;4.75;;;4.20;;
65996;SDS011;52765;52.258;21.052;2023-05-20T13:17:16;8.95;;;5.13;;
65996;SDS011;52765;52.258;21.052;2023-05-20T13:19:42;6.63;;;5.00;;
65996;SDS011;52765;52.258;21.052;2023-05-20T13:22:09;6.82;;;4.68;;
65996;SDS011;52765;52.258;21.052;2023-05-20T13:24:35;8.35;;;4.72;;
65996;SDS011;52765;52.258;21.052;2023-05-20T13:27:03;11.65;;;5.47;;
65996;SDS011;52765;52.258;21.052;2023-05-20T13:29:48;9.38;;;4.80;;
65996;SDS011;52765;52.258;21.052;2023-05-20T13:32:15;9.77;;;4.50;;
65996;SDS011;52765;52.258;21.052;2023-05-20T13:34:40;6.30;;;4.63;;
65996;SDS011;52765;52.258;21.052;2023-05-20T13:37:06;8.82;;;4.75;;
65996;SDS011;52765;52.258;21.052;2023-05-20T13:39:31;7.07;;;4.78;;
65996;SDS011;52765;52.258;21.052;2023-05-20T13:41:57;9.23;;;4.72;;
65996;SDS011;52765;52.258;21.052;2023-05-20T13:44:23;7.55;;;4.88;;
65996;SDS011;52765;52.258;21.052;2023-05-20T13:46:48;8.52;;;4.60;;
65996;SDS011;52765;52.258;21.052;2023-05-20T13:49:14;9.43;;;4.32;;
65996;SDS011;52765;52.258;21.052;2023-05-20T13:51:39;8.35;;;5.03;;
65996;SDS011;52765;52.258;21.052;2023-05-20T13:54:05;8.90;;;5.40;;
65996;SDS011;52765;52.258;21.052;2023-05-20T13:56:30;8.35;;;5.30;;
65996;SDS011;52765;52.258;21.052;2023-05-20T13:58:56;7.18;;;4.50;;
65996;SDS011;52765;52.258;21.052;2023-05-20T14:01:22;5.60;;;4.75;;
65996;SDS011;52765;52.258;21.052;2023-05-20T14:03:47;8.13;;;4.45;;
65996;SDS011;52765;52.258;21.052;2023-05-20T14:06:12;7.78;;;4.55;;
65996;SDS011;52765;52.258;21.052;2023-05-20T14:08:40;11.20;;;5.13;;
65996;SDS011;52765;52.258;21.052;2023-05-20T14:11:05;8.77;;;4.65;;
65996;SDS011;52765;52.258;21.052;2023-05-20T14:13:31;9.50;;;4.95;;
65996;SDS011;52765;52.258;21.052;2023-05-20T14:15:56;12.30;;;5.10;;
65996;SDS011;52765;52.258;21.052;2023-05-20T14:18:22;7.85;;;4.93;;
65996;SDS011;52765;52.258;21.052;2023-05-20T14:20:47;6.75;;;4.38;;
65996;SDS011;52765;52.258;21.052;2023-05-20T14:23:13;8.77;;;4.30;;
65996;SDS011;52765;52.258;21.052;2023-05-20T14:25:38;6.72;;;4.57;;
65996;SDS011;52765;52.258;21.052;2023-05-20T14:28:04;7.07;;;4.47;;
65996;SDS011;52765;52.258;21.052;2023-05-20T14:30:31;7.05;;;4.07;;
65996;SDS011;52765;52.258;21.052;2023-05-20T14:32:56;7.55;;;4.40;;
65996;SDS011;52765;52.258;21.052;2023-05-20T14:35:22;10.20;;;4.60;;
65996;SDS011;52765;52.258;21.052;2023-05-20T14:37:47;6.82;;;4.40;;
65996;SDS011;52765;52.258;21.052;2023-05-20T14:40:13;6.90;;;3.80;;
65996;SDS011;52765;52.258;21.052;2023-05-20T14:42:38;4.85;;;3.88;;